^^
Storico Meteosantamaria
 
Rapporto Giornaliero per Marzo 24, 2019 Unità:  Metrico    Imperiale   Entrambi
Rapporto Giornaliero Rapporto Settimanale Rapporto Mensile Rapporto Annuale Rapporto Personalizzato
  Attuale: Max: Min: Media:
Temperatura: 12.4 °C 22.7 °C 2.8 °C 13 °C
Punto di rugiada: 1.9 °C 5.8 °C -4.2 °C 0.6 °C
Umidità;: 49% 62% 26% 45%
Vel.Vento: 7.4km/h 14.6km/h 0.0km/h 4.2km/h
Raffiche: 8.2km/h 16.9km/h - -
DirezioneENE - - South
Pressione: 1015.9 hPa 1020.9 hPa 1013.9 hPa -
Pioggia: 0.0 mm      
Historical Graphs
 
 
Dati di Marzo 24, 2019
Ora Temperatura Punto di rugiada Pressione Direzione Vento Raffiche Umidità Intensità pioggia solare
00:03 9.0 °C -1.4 °C 1019.9 hPa Calm   3.7 km/h 48% 0.0 mm 0.00 W/m2
00:07 8.9 °C -1.6 °C 1019.9 hPa Calm   1.8 km/h 48% 0.0 mm 0.00 W/m2
00:13 8.3 °C -1.8 °C 1019.9 hPa ESE 4.7 km/h 6.0 km/h 49% 0.0 mm 0.00 W/m2
00:18 8.3 °C -1.8 °C 1019.9 hPa SW 3.1 km/h 3.7 km/h 49% 0.0 mm 0.00 W/m2
00:24 8.3 °C -1.8 °C 1019.9 hPa Calm   3.7 km/h 49% 0.0 mm 0.00 W/m2
00:28 8.2 °C -1.9 °C 1019.9 hPa Calm     49% 0.0 mm 0.00 W/m2
00:34 8.2 °C -1.6 °C 1019.9 hPa Calm     50% 0.0 mm 0.00 W/m2
00:38 8.1 °C -1.7 °C 1019.9 hPa Calm     50% 0.0 mm 0.00 W/m2
00:44 7.9 °C -1.9 °C 1018.9 hPa Calm     50% 0.0 mm 0.00 W/m2
00:48 7.9 °C -1.9 °C 1018.9 hPa Calm     50% 0.0 mm 0.00 W/m2
00:54 7.7 °C -2.1 °C 1018.9 hPa ENE 3.7 km/h 5.1 km/h 50% 0.0 mm 0.00 W/m2
00:58 7.5 °C -2.3 °C 1019.9 hPa Calm   1.9 km/h 50% 0.0 mm 0.00 W/m2
01:03 7.2 °C -2.3 °C 1019.9 hPa ESE 1.8 km/h 3.7 km/h 51% 0.0 mm 0.00 W/m2
01:09 7.0 °C -2.4 °C 1019.9 hPa NE 3.1 km/h 4.2 km/h 51% 0.0 mm 0.00 W/m2
01:13 6.7 °C -2.7 °C 1019.9 hPa SE 3.1 km/h 4.7 km/h 51% 0.0 mm 0.00 W/m2
01:19 6.9 °C -2.3 °C 1019.9 hPa Calm     52% 0.0 mm 0.00 W/m2
01:24 6.7 °C -2.5 °C 1019.9 hPa Calm     52% 0.0 mm 0.00 W/m2
01:29 6.6 °C -2.6 °C 1019.9 hPa Calm     52% 0.0 mm 0.00 W/m2
01:34 6.3 °C -2.6 °C 1019.9 hPa ENE 5.6 km/h 6.0 km/h 53% 0.0 mm 0.00 W/m2
01:39 6.3 °C -2.6 °C 1019.9 hPa East 3.7 km/h 5.6 km/h 53% 0.0 mm 0.00 W/m2
01:44 6.3 °C -2.6 °C 1019.9 hPa NE 1.8 km/h 3.7 km/h 53% 0.0 mm 0.00 W/m2
01:49 6.3 °C -2.6 °C 1019.9 hPa East 4.7 km/h 5.6 km/h 53% 0.0 mm 0.00 W/m2
01:54 6.2 °C -2.7 °C 1019.9 hPa East 3.1 km/h 5.6 km/h 53% 0.0 mm 0.00 W/m2
01:59 6.0 °C -2.6 °C 1019.9 hPa ESE 4.2 km/h 5.6 km/h 54% 0.0 mm 0.00 W/m2
02:03 6.1 °C -2.5 °C 1019.9 hPa SSE 2.7 km/h 5.6 km/h 54% 0.0 mm 0.00 W/m2
02:08 6.2 °C -2.4 °C 1019.9 hPa ESE 2.7 km/h 3.7 km/h 54% 0.0 mm 0.00 W/m2
02:13 6.2 °C -2.4 °C 1019.9 hPa Calm     54% 0.0 mm 0.00 W/m2
02:18 6.1 °C -2.5 °C 1019.9 hPa SSE 3.7 km/h 5.6 km/h 54% 0.0 mm 0.00 W/m2
02:23 6.2 °C -2.4 °C 1019.9 hPa East 4.2 km/h 5.6 km/h 54% 0.0 mm 0.00 W/m2
02:28 6.2 °C -2.4 °C 1018.9 hPa SSE 2.7 km/h 2.7 km/h 54% 0.0 mm 0.00 W/m2
02:33 6.0 °C -2.4 °C 1018.9 hPa East 3.7 km/h 5.6 km/h 55% 0.0 mm 0.00 W/m2
02:38 5.9 °C -2.7 °C 1018.9 hPa Calm   1.9 km/h 54% 0.0 mm 0.00 W/m2
02:43 5.7 °C -2.9 °C 1018.9 hPa ESE 3.7 km/h 5.6 km/h 54% 0.0 mm 0.00 W/m2
02:48 5.6 °C -2.7 °C 1018.9 hPa East 4.7 km/h 6.4 km/h 55% 0.0 mm 0.00 W/m2
02:54 5.5 °C -2.8 °C 1018.9 hPa SE 4.7 km/h 5.6 km/h 55% 0.0 mm 0.00 W/m2
02:58 5.7 °C -2.7 °C 1018.9 hPa SE 2.3 km/h 2.7 km/h 55% 0.0 mm 0.00 W/m2
03:03 5.8 °C -2.6 °C 1018.9 hPa East 4.7 km/h 5.6 km/h 55% 0.0 mm 0.00 W/m2
03:09 5.5 °C -2.8 °C 1018.9 hPa ENE 6.4 km/h 7.4 km/h 55% 0.0 mm 0.00 W/m2
03:13 5.3 °C -3.0 °C 1018.9 hPa ENE 4.7 km/h 5.6 km/h 55% 0.0 mm 0.00 W/m2
03:19 5.2 °C -3.1 °C 1018.9 hPa NE 4.7 km/h 5.6 km/h 55% 0.0 mm 0.00 W/m2
03:23 5.0 °C -3.3 °C 1018.9 hPa East 4.7 km/h 7.4 km/h 55% 0.0 mm 0.00 W/m2
03:28 4.9 °C -3.7 °C 1018.9 hPa ENE 4.2 km/h 5.6 km/h 54% 0.0 mm 0.00 W/m2
03:34 5.0 °C -3.6 °C 1018.9 hPa ENE 3.1 km/h 5.6 km/h 54% 0.0 mm 0.00 W/m2
03:38 5.0 °C -3.6 °C 1018.9 hPa ENE 4.7 km/h 5.6 km/h 54% 0.0 mm 0.00 W/m2
03:44 4.9 °C -3.7 °C 1018.9 hPa NE 4.2 km/h 5.6 km/h 54% 0.0 mm 0.00 W/m2
03:49 4.8 °C -3.7 °C 1018.9 hPa NE 2.3 km/h 3.7 km/h 54% 0.0 mm 0.00 W/m2
03:54 4.7 °C -3.6 °C 1018.9 hPa NE 5.6 km/h 6.4 km/h 55% 0.0 mm 0.00 W/m2
03:58 4.4 °C -3.9 °C 1019.9 hPa Calm   5.6 km/h 55% 0.0 mm 0.00 W/m2
04:04 4.3 °C -3.9 °C 1019.9 hPa NNE 2.3 km/h 3.7 km/h 55% 0.0 mm 0.00 W/m2
04:09 4.3 °C -3.9 °C 1019.9 hPa Calm   4.2 km/h 55% 0.0 mm 0.00 W/m2
04:13 4.1 °C -3.9 °C 1019.9 hPa NNE 3.7 km/h 5.6 km/h 56% 0.0 mm 0.00 W/m2
04:19 4.1 °C -3.9 °C 1019.9 hPa NNE 2.7 km/h 3.7 km/h 56% 0.0 mm 0.00 W/m2
04:24 4.2 °C -3.8 °C 1019.9 hPa NNE 2.3 km/h 2.7 km/h 56% 0.0 mm 0.00 W/m2
04:29 4.3 °C -3.7 °C 1019.9 hPa Calm     56% 0.0 mm 0.00 W/m2
04:32 4.2 °C -3.8 °C 1019.9 hPa Calm     56% 0.0 mm 0.00 W/m2
04:38 4.2 °C -3.8 °C 1019.9 hPa NNE 2.3 km/h 3.7 km/h 56% 0.0 mm 0.00 W/m2
04:44 4.1 °C -3.9 °C 1019.9 hPa ENE 4.7 km/h 5.6 km/h 56% 0.0 mm 0.00 W/m2
04:48 4.0 °C -4.0 °C 1019.9 hPa ENE 2.7 km/h 4.2 km/h 56% 0.0 mm 0.00 W/m2
04:54 3.9 °C -4.1 °C 1019.9 hPa Calm     56% 0.0 mm 0.00 W/m2
04:58 3.8 °C -4.2 °C 1019.9 hPa ENE 3.1 km/h 4.2 km/h 56% 0.0 mm 0.00 W/m2
05:03 3.7 °C -4.1 °C 1019.9 hPa ENE 4.7 km/h 5.6 km/h 57% 0.0 mm 0.00 W/m2
05:09 3.7 °C -3.8 °C 1019.9 hPa NE 4.7 km/h 5.6 km/h 58% 0.0 mm 0.00 W/m2
05:13 3.8 °C -4.2 °C 1019.9 hPa SE 4.2 km/h 5.6 km/h 56% 0.0 mm 0.00 W/m2
05:19 4.0 °C -4.0 °C 1019.9 hPa SSE 3.1 km/h 5.6 km/h 56% 0.0 mm 0.00 W/m2
05:23 4.1 °C -3.7 °C 1019.9 hPa Calm   4.2 km/h 57% 0.0 mm 0.00 W/m2
05:28 4.1 °C -3.7 °C 1019.9 hPa SE 2.7 km/h 3.7 km/h 57% 0.0 mm 0.00 W/m2
05:33 4.0 °C -3.8 °C 1019.9 hPa ESE 3.1 km/h 5.1 km/h 57% 0.0 mm 0.00 W/m2
05:39 3.9 °C -3.8 °C 1019.9 hPa SSE 5.1 km/h 6.4 km/h 57% 0.0 mm 0.00 W/m2
05:43 3.9 °C -3.6 °C 1019.9 hPa Calm   2.3 km/h 58% 0.0 mm 0.00 W/m2
05:49 3.8 °C -3.7 °C 1019.9 hPa Calm     58% 0.0 mm 0.00 W/m2
05:53 3.4 °C -3.9 °C 1019.9 hPa ENE 4.2 km/h 5.6 km/h 59% 0.0 mm 0.00 W/m2
05:59 3.1 °C -4.2 °C 1019.9 hPa East 4.2 km/h 4.2 km/h 59% 0.0 mm 0.00 W/m2
06:04 3.2 °C -3.8 °C 1019.9 hPa ESE 2.3 km/h 3.7 km/h 60% 0.0 mm 0.00 W/m2
06:08 3.3 °C -3.7 °C 1019.9 hPa Calm     60% 0.0 mm 0.00 W/m2
06:14 3.3 °C -3.5 °C 1019.9 hPa Calm     61% 0.0 mm 0.00 W/m2
06:18 3.3 °C -3.5 °C 1019.9 hPa Calm     61% 0.0 mm 0.00 W/m2
06:24 3.2 °C -3.6 °C 1019.9 hPa Calm     61% 0.0 mm 0.00 W/m2
06:29 3.0 °C -3.6 °C 1019.9 hPa NNE 2.3 km/h 3.7 km/h 62% 0.0 mm 0.00 W/m2
06:34 2.8 °C -3.8 °C 1019.9 hPa NE 4.2 km/h 5.6 km/h 62% 0.0 mm 0.00 W/m2
06:38 2.9 °C -3.7 °C 1019.9 hPa Calm   1.9 km/h 62% 0.0 mm 0.00 W/m2
06:44 2.8 °C -3.8 °C 1018.9 hPa NE 2.3 km/h 4.7 km/h 62% 0.0 mm 0.00 W/m2
06:49 2.8 °C -3.8 °C 1018.9 hPa East 3.1 km/h 4.7 km/h 62% 0.0 mm 0.00 W/m2
06:53 2.9 °C -3.7 °C 1018.9 hPa East 3.1 km/h 3.7 km/h 62% 0.0 mm 0.00 W/m2
06:58 3.3 °C -3.3 °C 1019.9 hPa Calm   1.9 km/h 62% 0.0 mm 0.00 W/m2
07:03 3.9 °C -2.7 °C 1019.9 hPa Calm     62% 0.0 mm 0.00 W/m2
07:08 4.0 °C -2.6 °C 1019.9 hPa Calm     62% 0.0 mm 0.00 W/m2
07:13 4.3 °C -2.3 °C 1019.9 hPa NE 2.3 km/h 3.7 km/h 62% 0.0 mm 0.00 W/m2
07:18 4.4 °C -2.3 °C 1019.9 hPa NE 4.7 km/h 5.6 km/h 62% 0.0 mm 0.00 W/m2
07:23 4.6 °C -2.1 °C 1019.9 hPa NE 4.2 km/h 5.6 km/h 62% 0.0 mm 0.00 W/m2
07:28 4.9 °C -1.8 °C 1019.9 hPa NE 2.7 km/h 3.7 km/h 62% 0.0 mm 0.00 W/m2
07:33 5.4 °C -1.5 °C 1019.9 hPa NE 2.3 km/h 3.7 km/h 61% 0.0 mm 0.00 W/m2
07:38 5.7 °C -1.2 °C 1019.9 hPa Calm     61% 0.0 mm 0.00 W/m2
07:43 5.7 °C -1.2 °C 1019.9 hPa WSW 2.3 km/h 3.7 km/h 61% 0.0 mm 0.00 W/m2
07:48 6.0 °C -0.9 °C 1019.9 hPa SW 3.7 km/h 5.6 km/h 61% 0.0 mm 0.00 W/m2
07:53 6.2 °C -0.8 °C 1019.9 hPa WSW 3.7 km/h 5.6 km/h 61% 0.0 mm 0.00 W/m2
07:58 6.2 °C -1.0 °C 1020.9 hPa WSW 3.1 km/h 5.6 km/h 60% 0.0 mm 0.00 W/m2
08:04 6.5 °C -0.5 °C 1020.9 hPa WSW 2.7 km/h 3.7 km/h 61% 0.0 mm 0.00 W/m2
08:08 6.8 °C -0.4 °C 1020.9 hPa WNW 3.7 km/h 6.0 km/h 60% 0.0 mm 0.00 W/m2
08:14 6.9 °C -0.3 °C 1019.9 hPa NW 4.2 km/h 5.6 km/h 60% 0.0 mm 0.00 W/m2
08:18 7.1 °C -0.2 °C 1019.9 hPa North 2.7 km/h 3.7 km/h 60% 0.0 mm 0.00 W/m2
08:24 7.7 °C 0.4 °C 1019.9 hPa NNE 2.3 km/h 3.7 km/h 60% 0.0 mm 0.00 W/m2
08:28 8.2 °C 0.7 °C 1019.9 hPa Calm     59% 0.0 mm 0.00 W/m2
08:34 8.7 °C 1.1 °C 1019.9 hPa NNE 3.1 km/h 5.1 km/h 59% 0.0 mm 115.00 W/m2
08:38 8.5 °C 0.9 °C 1019.9 hPa North 2.7 km/h 5.6 km/h 59% 0.0 mm 0.00 W/m2
08:44 8.9 °C 1.3 °C 1019.9 hPa Calm   4.7 km/h 59% 0.0 mm 115.00 W/m2
08:48 9.2 °C 1.3 °C 1019.9 hPa Calm   5.6 km/h 58% 0.0 mm 115.00 W/m2
08:54 9.5 °C 1.6 °C 1019.9 hPa North 2.3 km/h 3.7 km/h 58% 0.0 mm 115.00 W/m2
08:58 9.9 °C 2.0 °C 1019.9 hPa Calm   1.9 km/h 58% 0.0 mm 115.00 W/m2
09:03 10.2 °C 2.1 °C 1019.9 hPa SW 3.7 km/h 5.6 km/h 57% 0.0 mm 115.00 W/m2
09:09 10.6 °C 2.4 °C 1019.9 hPa West 1.8 km/h 3.7 km/h 57% 0.0 mm 115.00 W/m2
09:13 11.0 °C 2.6 °C 1019.9 hPa SW 5.1 km/h 7.4 km/h 56% 0.0 mm 115.00 W/m2
09:18 10.9 °C 2.2 °C 1019.9 hPa WSW 2.7 km/h 5.6 km/h 55% 0.0 mm 115.00 W/m2
09:23 11.1 °C 2.4 °C 1019.9 hPa SSW 2.7 km/h 5.6 km/h 55% 0.0 mm 115.00 W/m2
09:28 11.7 °C 2.9 °C 1018.9 hPa South 2.7 km/h 3.7 km/h 55% 0.0 mm 115.00 W/m2
09:33 12.2 °C 3.2 °C 1018.9 hPa ESE 3.1 km/h 5.6 km/h 54% 0.0 mm 115.00 W/m2
09:38 12.0 °C 2.7 °C 1018.9 hPa West 2.3 km/h 3.7 km/h 53% 0.0 mm 115.00 W/m2
09:43 12.4 °C 3.1 °C 1019.9 hPa South 2.7 km/h 5.6 km/h 53% 0.0 mm 115.00 W/m2
09:48 12.8 °C 3.4 °C 1019.9 hPa WSW 2.3 km/h 5.6 km/h 53% 0.0 mm 115.00 W/m2
09:53 13.1 °C 3.4 °C 1019.9 hPa SW 3.7 km/h 5.6 km/h 52% 0.0 mm 115.00 W/m2
09:58 12.9 °C 3.3 °C 1019.9 hPa WSW 4.2 km/h 5.6 km/h 52% 0.0 mm 115.00 W/m2
10:03 13.4 °C 3.7 °C 1019.9 hPa South 2.7 km/h 3.7 km/h 52% 0.0 mm 115.00 W/m2
10:08 14.0 °C 3.7 °C 1019.9 hPa Calm   3.7 km/h 50% 0.0 mm 115.00 W/m2
10:13 14.4 °C 4.1 °C 1019.9 hPa SSW 4.7 km/h 6.0 km/h 50% 0.0 mm 115.00 W/m2
10:18 14.3 °C 3.7 °C 1019.9 hPa West 5.6 km/h 7.4 km/h 49% 0.0 mm 115.00 W/m2
10:24 14.0 °C 2.6 °C 1019.9 hPa NW 5.1 km/h 5.6 km/h 46% 0.0 mm 115.00 W/m2
10:28 14.1 °C 2.9 °C 1019.9 hPa North 2.7 km/h 3.7 km/h 47% 0.0 mm 115.00 W/m2
10:34 14.3 °C 2.8 °C 1019.9 hPa North 2.7 km/h 4.2 km/h 46% 0.0 mm 230.00 W/m2
10:38 14.4 °C 2.9 °C 1019.9 hPa North 2.7 km/h 3.7 km/h 46% 0.0 mm 230.00 W/m2
10:44 14.6 °C 3.1 °C 1019.9 hPa North 5.1 km/h 5.6 km/h 46% 0.0 mm 230.00 W/m2
10:48 15.0 °C 3.4 °C 1019.9 hPa North 3.7 km/h 5.6 km/h 46% 0.0 mm 230.00 W/m2
10:54 15.5 °C 3.6 °C 1019.9 hPa WNW 2.3 km/h 6.0 km/h 45% 0.0 mm 230.00 W/m2
10:58 16.2 °C 4.6 °C 1019.9 hPa WSW 6.0 km/h 7.4 km/h 46% 0.0 mm 230.00 W/m2
11:03 16.0 °C 4.1 °C 1019.9 hPa West 4.2 km/h 3.7 km/h 45% 0.0 mm 230.00 W/m2
11:09 16.1 °C 3.5 °C 1019.9 hPa WNW 5.6 km/h 6.0 km/h 43% 0.0 mm 345.00 W/m2
11:13 16.3 °C 3.7 °C 1018.9 hPa Calm   3.1 km/h 43% 0.0 mm 345.00 W/m2
11:19 17.0 °C 4.3 °C 1018.9 hPa WSW 1.8 km/h 5.6 km/h 43% 0.0 mm 345.00 W/m2
11:23 17.1 °C 4.1 °C 1018.9 hPa West 6.9 km/h 9.5 km/h 42% 0.0 mm 345.00 W/m2
11:29 17.1 °C 4.4 °C 1019.9 hPa WSW 7.4 km/h 9.3 km/h 43% 0.0 mm 345.00 W/m2
11:33 17.5 °C 4.8 °C 1019.9 hPa East 2.7 km/h 5.6 km/h 43% 0.0 mm 345.00 W/m2
11:38 17.8 °C 5.1 °C 1019.9 hPa SW 4.2 km/h 6.0 km/h 43% 0.0 mm 460.00 W/m2
11:43 18.4 °C 5.6 °C 1018.9 hPa SSW 6.0 km/h 7.4 km/h 43% 0.0 mm 460.00 W/m2
11:48 19.0 °C 5.8 °C 1018.9 hPa SW 3.7 km/h 5.6 km/h 42% 0.0 mm 460.00 W/m2
11:53 19.0 °C 5.4 °C 1018.9 hPa West 5.6 km/h 7.4 km/h 41% 0.0 mm 460.00 W/m2
11:58 18.8 °C 4.9 °C 1018.9 hPa SE 6.4 km/h 6.4 km/h 40% 0.0 mm 460.00 W/m2
12:03 18.8 °C 4.9 °C 1018.9 hPa ESE 4.7 km/h 6.4 km/h 40% 0.0 mm 460.00 W/m2
12:08 19.3 °C 5.0 °C 1018.9 hPa WSW 5.6 km/h 8.2 km/h 39% 0.0 mm 460.00 W/m2
12:13 19.2 °C 4.5 °C 1017.9 hPa WSW 6.9 km/h 9.3 km/h 38% 0.0 mm 460.00 W/m2
12:18 19.0 °C 3.6 °C 1017.9 hPa WSW 6.9 km/h 9.5 km/h 36% 0.0 mm 460.00 W/m2
12:23 19.4 °C 3.6 °C 1017.9 hPa WNW 3.7 km/h 6.4 km/h 35% 0.0 mm 575.00 W/m2
12:28 18.8 °C 2.6 °C 1017.9 hPa NE 4.2 km/h 5.6 km/h 34% 0.0 mm 575.00 W/m2
12:33 19.6 °C 4.1 °C 1017.9 hPa WSW 6.0 km/h 7.4 km/h 36% 0.0 mm 575.00 W/m2
12:38 20.4 °C 4.0 °C 1017.9 hPa West 5.1 km/h 11.1 km/h 34% 0.0 mm 575.00 W/m2
12:44 19.9 °C 3.6 °C 1017.9 hPa West 11.6 km/h 13.0 km/h 34% 0.0 mm 575.00 W/m2
12:48 19.6 °C 3.3 °C 1017.9 hPa WSW 5.1 km/h 7.7 km/h 34% 0.0 mm 575.00 W/m2
12:54 20.0 °C 3.7 °C 1017.9 hPa West 7.4 km/h 11.1 km/h 34% 0.0 mm 575.00 W/m2
12:58 20.5 °C 4.1 °C 1017.9 hPa NNE 3.1 km/h 3.7 km/h 34% 0.0 mm 575.00 W/m2
13:03 20.6 °C 4.2 °C 1017.9 hPa SSE 5.6 km/h 7.4 km/h 34% 0.0 mm 575.00 W/m2
13:09 20.1 °C 3.7 °C 1017.9 hPa NW 6.0 km/h 7.4 km/h 34% 0.0 mm 575.00 W/m2
13:13 20.9 °C 4.4 °C 1017.9 hPa NNE 4.7 km/h 7.4 km/h 34% 0.0 mm 575.00 W/m2
13:19 20.3 °C 3.9 °C 1017.9 hPa WSW 7.4 km/h 9.5 km/h 34% 0.0 mm 690.00 W/m2
13:23 20.2 °C 3.8 °C 1017.9 hPa SW 11.3 km/h 14.8 km/h 34% 0.0 mm 690.00 W/m2
13:29 20.2 °C 3.8 °C 1017.9 hPa WNW 1.8 km/h 2.3 km/h 34% 0.0 mm 690.00 W/m2
13:33 21.3 °C 4.8 °C 1017.9 hPa SSE 1.8 km/h 5.1 km/h 34% 0.0 mm 690.00 W/m2
13:39 21.1 °C 4.6 °C 1017.9 hPa West 6.9 km/h 14.6 km/h 34% 0.0 mm 690.00 W/m2
13:43 20.7 °C 3.8 °C 1016.9 hPa WNW 4.7 km/h 9.3 km/h 33% 0.0 mm 690.00 W/m2
13:49 20.9 °C 4.0 °C 1016.9 hPa SW 8.7 km/h 11.3 km/h 33% 0.0 mm 690.00 W/m2
13:53 21.2 °C 4.3 °C 1016.9 hPa NNW 4.2 km/h 5.6 km/h 33% 0.0 mm 690.00 W/m2
13:58 21.3 °C 4.4 °C 1016.9 hPa SW 8.7 km/h 11.1 km/h 33% 0.0 mm 690.00 W/m2
14:03 20.9 °C 4.0 °C 1016.9 hPa WSW 8.7 km/h 13.0 km/h 33% 0.0 mm 690.00 W/m2
14:08 21.3 °C 3.9 °C 1016.9 hPa NNW 3.1 km/h 7.4 km/h 32% 0.0 mm 575.00 W/m2
14:13 21.4 °C 4.4 °C 1015.9 hPa NE 3.1 km/h 6.9 km/h 33% 0.0 mm 575.00 W/m2
14:18 20.6 °C 2.9 °C 1015.9 hPa North 5.1 km/h 7.4 km/h 31% 0.0 mm 575.00 W/m2
14:23 21.7 °C 4.7 °C 1015.9 hPa ESE 2.3 km/h 4.2 km/h 33% 0.0 mm 575.00 W/m2
14:28 21.9 °C 4.4 °C 1015.9 hPa SW 2.7 km/h 9.3 km/h 32% 0.0 mm 575.00 W/m2
14:33 22.0 °C 4.6 °C 1015.9 hPa SE 2.7 km/h 2.7 km/h 32% 0.0 mm 575.00 W/m2
14:38 22.7 °C 4.7 °C 1015.9 hPa West 5.6 km/h 6.4 km/h 31% 0.0 mm 575.00 W/m2
14:43 22.4 °C 4.4 °C 1015.9 hPa West 4.2 km/h 5.6 km/h 31% 0.0 mm 575.00 W/m2
14:48 22.4 °C 3.5 °C 1015.9 hPa WNW 7.4 km/h 10.5 km/h 29% 0.0 mm 575.00 W/m2
14:53 22.1 °C 2.7 °C 1015.9 hPa WNW 11.6 km/h 15.6 km/h 28% 0.0 mm 575.00 W/m2
14:58 22.0 °C 2.7 °C 1016.9 hPa NNW 5.1 km/h 11.1 km/h 28% 0.0 mm 460.00 W/m2
15:04 21.9 °C 2.1 °C 1016.9 hPa NNW 12.1 km/h 15.1 km/h 27% 0.0 mm 460.00 W/m2
15:08 22.1 °C 2.2 °C 1016.9 hPa WNW 6.0 km/h 9.3 km/h 27% 0.0 mm 460.00 W/m2
15:14 22.1 °C 2.2 °C 1015.9 hPa WSW 11.6 km/h 15.6 km/h 27% 0.0 mm 460.00 W/m2
15:18 22.0 °C 2.7 °C 1015.9 hPa West 7.4 km/h 11.1 km/h 28% 0.0 mm 460.00 W/m2
15:24 22.4 °C 3.0 °C 1015.9 hPa West 8.7 km/h 11.6 km/h 28% 0.0 mm 460.00 W/m2
15:28 22.5 °C 2.6 °C 1015.9 hPa West 6.0 km/h 7.4 km/h 27% 0.0 mm 460.00 W/m2
15:34 22.5 °C 2.0 °C 1015.9 hPa WNW 9.2 km/h 11.3 km/h 26% 0.0 mm 345.00 W/m2
15:38 22.7 °C 2.7 °C 1015.9 hPa West 4.7 km/h 9.2 km/h 27% 0.0 mm 345.00 W/m2
15:44 22.5 °C 2.6 °C 1014.9 hPa West 12.1 km/h 16.9 km/h 27% 0.0 mm 345.00 W/m2
15:49 22.3 °C 2.9 °C 1014.9 hPa SSW 10.5 km/h 14.8 km/h 28% 0.0 mm 345.00 W/m2
15:54 22.6 °C 3.2 °C 1014.9 hPa West 14.6 km/h 16.9 km/h 28% 0.0 mm 345.00 W/m2
15:59 22.3 °C 1.8 °C 1015.9 hPa West 10.5 km/h 14.8 km/h 26% 0.0 mm 345.00 W/m2
16:04 21.9 °C 1.5 °C 1015.9 hPa West 12.9 km/h 14.8 km/h 26% 0.0 mm 230.00 W/m2
16:09 21.7 °C 1.3 °C 1015.9 hPa West 9.2 km/h 11.1 km/h 26% 0.0 mm 230.00 W/m2
16:14 22.0 °C 1.6 °C 1014.9 hPa West 12.4 km/h 16.7 km/h 26% 0.0 mm 230.00 W/m2
16:19 22.0 °C 1.6 °C 1014.9 hPa West 6.9 km/h 11.1 km/h 26% 0.0 mm 230.00 W/m2
16:23 22.1 °C 2.2 °C 1014.9 hPa SW 4.2 km/h 12.1 km/h 27% 0.0 mm 230.00 W/m2
16:27 22.1 °C 2.2 °C 1014.9 hPa West 3.1 km/h 11.1 km/h 27% 0.0 mm 230.00 W/m2
16:33 22.1 °C 2.2 °C 1014.9 hPa WNW 9.2 km/h 11.1 km/h 27% 0.0 mm 115.00 W/m2
16:37 22.0 °C 2.1 °C 1014.9 hPa WSW 10.9 km/h 13.0 km/h 27% 0.0 mm 115.00 W/m2
16:43 22.4 °C 3.0 °C 1014.9 hPa West 5.6 km/h 11.3 km/h 28% 0.0 mm 115.00 W/m2
16:47 22.0 °C 2.1 °C 1014.9 hPa SW 6.0 km/h 11.1 km/h 27% 0.0 mm 115.00 W/m2
16:53 22.2 °C 2.3 °C 1014.9 hPa SW 3.7 km/h 7.4 km/h 27% 0.0 mm 115.00 W/m2
16:59 22.1 °C 2.2 °C 1013.9 hPa West 6.9 km/h 9.5 km/h 27% 0.0 mm 115.00 W/m2
17:04 22.2 °C 2.3 °C 1013.9 hPa WSW 6.4 km/h 8.2 km/h 27% 0.0 mm 0.00 W/m2
17:08 22.0 °C 2.1 °C 1013.9 hPa West 5.1 km/h 5.6 km/h 27% 0.0 mm 0.00 W/m2
17:14 22.0 °C 2.1 °C 1013.9 hPa WSW 10.5 km/h 14.8 km/h 27% 0.0 mm 0.00 W/m2
17:18 21.8 °C 1.9 °C 1013.9 hPa SSW 10.5 km/h 11.3 km/h 27% 0.0 mm 0.00 W/m2
17:24 21.8 °C 1.9 °C 1013.9 hPa WSW 7.7 km/h 11.3 km/h 27% 0.0 mm 0.00 W/m2
17:28 21.8 °C 1.9 °C 1014.9 hPa SW 7.7 km/h 11.1 km/h 27% 0.0 mm 0.00 W/m2
17:34 21.7 °C 1.9 °C 1014.9 hPa West 5.1 km/h 6.4 km/h 27% 0.0 mm 0.00 W/m2
17:38 21.7 °C 1.9 °C 1014.9 hPa SW 5.1 km/h 7.4 km/h 27% 0.0 mm 0.00 W/m2
17:44 21.6 °C 1.8 °C 1014.9 hPa SW 4.7 km/h 5.6 km/h 27% 0.0 mm 0.00 W/m2
17:48 21.6 °C 2.3 °C 1014.9 hPa SW 4.2 km/h 5.6 km/h 28% 0.0 mm 0.00 W/m2
17:54 21.3 °C 2.1 °C 1014.9 hPa WSW 5.1 km/h 6.4 km/h 28% 0.0 mm 0.00 W/m2
17:59 21.2 °C 1.9 °C 1014.9 hPa WSW 6.0 km/h 8.2 km/h 28% 0.0 mm 0.00 W/m2
18:04 21.0 °C 1.8 °C 1014.9 hPa WSW 6.0 km/h 7.4 km/h 28% 0.0 mm 0.00 W/m2
18:09 20.9 °C 1.7 °C 1014.9 hPa WSW 6.0 km/h 6.4 km/h 28% 0.0 mm 0.00 W/m2
18:14 20.8 °C 1.6 °C 1013.9 hPa WSW 4.7 km/h 6.0 km/h 28% 0.0 mm 0.00 W/m2
18:19 20.5 °C 1.8 °C 1013.9 hPa WSW 4.2 km/h 5.6 km/h 29% 0.0 mm 0.00 W/m2
18:24 20.3 °C 2.2 °C 1013.9 hPa WSW 3.1 km/h 3.7 km/h 30% 0.0 mm 0.00 W/m2
18:29 20.1 °C 1.9 °C 1013.9 hPa WSW 2.7 km/h 2.7 km/h 30% 0.0 mm 0.00 W/m2
18:34 20.0 °C 1.9 °C 1013.9 hPa SW 4.2 km/h 5.6 km/h 30% 0.0 mm 0.00 W/m2
18:38 19.8 °C 1.7 °C 1013.9 hPa WSW 6.4 km/h 12.1 km/h 30% 0.0 mm 0.00 W/m2
18:43 19.3 °C 1.3 °C 1013.9 hPa WSW 7.4 km/h 6.9 km/h 30% 0.0 mm 0.00 W/m2
18:48 18.9 °C 1.4 °C 1013.9 hPa SW 10.5 km/h 15.1 km/h 31% 0.0 mm 0.00 W/m2
18:53 18.5 °C 1.9 °C 1013.9 hPa WSW 10.5 km/h 13.0 km/h 33% 0.0 mm 0.00 W/m2
18:58 18.2 °C 2.1 °C 1014.9 hPa SW 11.3 km/h 13.0 km/h 34% 0.0 mm 0.00 W/m2
19:03 18.0 °C 1.9 °C 1014.9 hPa WSW 8.2 km/h 13.0 km/h 34% 0.0 mm 0.00 W/m2
19:08 17.8 °C 1.7 °C 1014.9 hPa WSW 6.9 km/h 7.4 km/h 34% 0.0 mm 0.00 W/m2
19:13 17.5 °C 1.8 °C 1014.9 hPa South 2.7 km/h 5.6 km/h 35% 0.0 mm 0.00 W/m2
19:18 17.4 °C 1.8 °C 1014.9 hPa SE 2.7 km/h 6.0 km/h 35% 0.0 mm 0.00 W/m2
19:23 17.0 °C 1.4 °C 1014.9 hPa East 4.7 km/h 5.6 km/h 35% 0.0 mm 0.00 W/m2
19:28 16.5 °C 1.4 °C 1015.9 hPa East 2.7 km/h 3.7 km/h 36% 0.0 mm 0.00 W/m2
19:34 16.3 °C 1.2 °C 1015.9 hPa SE 1.8 km/h 3.7 km/h 36% 0.0 mm 0.00 W/m2
19:38 16.1 °C 1.4 °C 1015.9 hPa ENE 2.7 km/h 3.7 km/h 37% 0.0 mm 0.00 W/m2
19:44 16.2 °C 1.5 °C 1015.9 hPa ENE 3.1 km/h 3.7 km/h 37% 0.0 mm 0.00 W/m2
19:48 15.9 °C 1.6 °C 1015.9 hPa ENE 3.1 km/h 5.6 km/h 38% 0.0 mm 0.00 W/m2
19:54 15.5 °C 1.2 °C 1015.9 hPa North 2.7 km/h 5.6 km/h 38% 0.0 mm 0.00 W/m2
19:58 15.4 °C 1.8 °C 1015.9 hPa WSW 9.2 km/h 11.1 km/h 40% 0.0 mm 0.00 W/m2
20:03 15.4 °C 1.8 °C 1015.9 hPa Calm   4.2 km/h 40% 0.0 mm 0.00 W/m2
20:09 15.3 °C 1.8 °C 1015.9 hPa East 6.0 km/h 7.7 km/h 40% 0.0 mm 0.00 W/m2
20:13 15.3 °C 1.8 °C 1015.9 hPa Calm   1.9 km/h 40% 0.0 mm 0.00 W/m2
20:19 14.9 °C 1.8 °C 1015.9 hPa Calm     41% 0.0 mm 0.00 W/m2
20:23 14.8 °C 2.0 °C 1015.9 hPa SW 7.7 km/h 8.2 km/h 42% 0.0 mm 0.00 W/m2
20:29 14.8 °C 2.0 °C 1015.9 hPa ESE 4.2 km/h 4.2 km/h 42% 0.0 mm 0.00 W/m2
20:33 14.5 °C 1.7 °C 1015.9 hPa ENE 3.7 km/h 4.2 km/h 42% 0.0 mm 0.00 W/m2
20:39 14.0 °C 1.6 °C 1015.9 hPa ENE 3.1 km/h 3.7 km/h 43% 0.0 mm 0.00 W/m2
20:44 13.5 °C 1.4 °C 1015.9 hPa ENE 3.1 km/h 3.7 km/h 44% 0.0 mm 0.00 W/m2
20:49 13.1 °C 1.7 °C 1015.9 hPa ENE 6.0 km/h 7.4 km/h 46% 0.0 mm 0.00 W/m2
20:54 12.6 °C 1.6 °C 1015.9 hPa ENE 6.4 km/h 9.2 km/h 47% 0.0 mm 0.00 W/m2
20:59 12.5 °C 1.8 °C 1015.9 hPa ENE 4.7 km/h 5.6 km/h 48% 0.0 mm 0.00 W/m2
21:03 12.4 °C 1.9 °C 1015.9 hPa ENE 7.4 km/h 8.2 km/h 49% 0.0 mm 0.00 W/m2
Meteosantamaria, Umbria, ITALIA
per gentile concessione di Weather Underground - 4 mb